Atwood, Kansas
Current Conditions -  °F | °C
As of 6:35 PM on Wednesday 22 Oct 2014 (Local Time) from KCBK Reporting Station
Clear Clear  
Wind Chill: 66°   Ceiling: Unl
Heat Index: 66°   Visibility: 10mi
Dew Point: 50°   Wind: 7mph
Humidity: 56%   Direction: 40°NE
Pressure: 30.03"   Gusts: NA
Location:  39.81°N, 101.04°W
Report Text: KCBK 222335Z AUTO 04006KT 10SM CLR 19/10 A3003 RMK AO2
Loading
Personal Weather Stations






























Interactive Weather Map New forecast layout! Learn more

10-Day Weather Forecast

Advertisements
Track Severe Weather on mobile